sensor_id;sensor_type;location;lat;lon;timestamp;P1;durP1;ratioP1;P2;durP2;ratioP2
67372;SDS011;54257;54.496;18.412;2023-03-31T00:01:12;9.30;;;4.40;;
67372;SDS011;54257;54.496;18.412;2023-03-31T00:03:39;8.40;;;4.90;;
67372;SDS011;54257;54.496;18.412;2023-03-31T00:06:09;7.50;;;4.70;;
67372;SDS011;54257;54.496;18.412;2023-03-31T00:08:44;6.80;;;4.40;;
67372;SDS011;54257;54.496;18.412;2023-03-31T00:11:12;9.20;;;5.20;;
67372;SDS011;54257;54.496;18.412;2023-03-31T00:13:39;7.40;;;4.40;;
67372;SDS011;54257;54.496;18.412;2023-03-31T00:16:07;6.80;;;4.70;;
67372;SDS011;54257;54.496;18.412;2023-03-31T00:18:36;6.80;;;4.90;;
67372;SDS011;54257;54.496;18.412;2023-03-31T00:21:07;9.70;;;5.00;;
67372;SDS011;54257;54.496;18.412;2023-03-31T00:23:40;8.70;;;4.40;;
67372;SDS011;54257;54.496;18.412;2023-03-31T00:26:08;13.00;;;5.20;;
67372;SDS011;54257;54.496;18.412;2023-03-31T00:28:35;7.10;;;3.60;;
67372;SDS011;54257;54.496;18.412;2023-03-31T00:31:03;6.70;;;3.50;;
67372;SDS011;54257;54.496;18.412;2023-03-31T00:33:30;6.70;;;4.20;;
67372;SDS011;54257;54.496;18.412;2023-03-31T00:38:59;5.10;;;3.50;;
67372;SDS011;54257;54.496;18.412;2023-03-31T00:41:43;5.60;;;3.80;;
67372;SDS011;54257;54.496;18.412;2023-03-31T00:44:22;9.20;;;5.00;;
67372;SDS011;54257;54.496;18.412;2023-03-31T00:47:11;8.90;;;4.10;;
67372;SDS011;54257;54.496;18.412;2023-03-31T00:49:53;8.30;;;4.20;;
67372;SDS011;54257;54.496;18.412;2023-03-31T00:52:37;7.40;;;4.60;;
67372;SDS011;54257;54.496;18.412;2023-03-31T00:55:13;8.80;;;4.90;;
67372;SDS011;54257;54.496;18.412;2023-03-31T00:57:50;7.50;;;4.30;;
67372;SDS011;54257;54.496;18.412;2023-03-31T01:00:32;9.10;;;4.50;;
67372;SDS011;54257;54.496;18.412;2023-03-31T01:03:12;7.60;;;4.00;;
67372;SDS011;54257;54.496;18.412;2023-03-31T01:05:46;11.70;;;4.60;;
67372;SDS011;54257;54.496;18.412;2023-03-31T01:08:20;10.00;;;5.10;;
67372;SDS011;54257;54.496;18.412;2023-03-31T01:10:54;10.20;;;4.90;;
67372;SDS011;54257;54.496;18.412;2023-03-31T01:13:30;6.60;;;4.40;;
67372;SDS011;54257;54.496;18.412;2023-03-31T01:16:01;6.30;;;4.20;;
67372;SDS011;54257;54.496;18.412;2023-03-31T01:18:43;6.80;;;3.50;;
67372;SDS011;54257;54.496;18.412;2023-03-31T01:48:15;7.10;;;4.40;;
67372;SDS011;54257;54.496;18.412;2023-03-31T01:51:17;8.60;;;4.00;;
67372;SDS011;54257;54.496;18.412;2023-03-31T01:54:00;6.70;;;3.80;;
67372;SDS011;54257;54.496;18.412;2023-03-31T02:03:25;9.70;;;4.90;;
67372;SDS011;54257;54.496;18.412;2023-03-31T02:06:18;6.70;;;3.70;;
67372;SDS011;54257;54.496;18.412;2023-03-31T02:09:08;7.40;;;4.50;;
67372;SDS011;54257;54.496;18.412;2023-03-31T02:11:50;8.20;;;4.40;;
67372;SDS011;54257;54.496;18.412;2023-03-31T02:14:29;9.30;;;3.90;;
67372;SDS011;54257;54.496;18.412;2023-03-31T02:17:24;8.20;;;4.50;;
67372;SDS011;54257;54.496;18.412;2023-03-31T02:19:58;7.10;;;4.30;;
67372;SDS011;54257;54.496;18.412;2023-03-31T02:22:38;12.10;;;5.40;;
67372;SDS011;54257;54.496;18.412;2023-03-31T02:25:21;6.70;;;3.90;;
67372;SDS011;54257;54.496;18.412;2023-03-31T02:28:08;9.20;;;4.10;;
67372;SDS011;54257;54.496;18.412;2023-03-31T02:33:37;9.50;;;3.90;;
67372;SDS011;54257;54.496;18.412;2023-03-31T02:36:06;6.10;;;3.80;;
67372;SDS011;54257;54.496;18.412;2023-03-31T02:39:04;7.70;;;4.30;;
67372;SDS011;54257;54.496;18.412;2023-03-31T02:41:52;7.00;;;4.00;;
67372;SDS011;54257;54.496;18.412;2023-03-31T02:44:23;9.10;;;4.70;;
67372;SDS011;54257;54.496;18.412;2023-03-31T02:46:51;6.80;;;3.80;;
67372;SDS011;54257;54.496;18.412;2023-03-31T02:49:25;8.40;;;4.00;;
67372;SDS011;54257;54.496;18.412;2023-03-31T03:07:48;7.00;;;3.60;;
67372;SDS011;54257;54.496;18.412;2023-03-31T03:10:48;8.40;;;5.70;;
67372;SDS011;54257;54.496;18.412;2023-03-31T03:13:36;9.30;;;4.10;;
67372;SDS011;54257;54.496;18.412;2023-03-31T03:16:22;5.50;;;4.10;;
67372;SDS011;54257;54.496;18.412;2023-03-31T03:19:00;7.30;;;4.70;;
67372;SDS011;54257;54.496;18.412;2023-03-31T03:21:30;9.10;;;4.70;;
67372;SDS011;54257;54.496;18.412;2023-03-31T03:24:11;7.40;;;3.90;;
67372;SDS011;54257;54.496;18.412;2023-03-31T03:26:56;9.10;;;4.50;;
67372;SDS011;54257;54.496;18.412;2023-03-31T03:29:27;8.30;;;3.90;;
67372;SDS011;54257;54.496;18.412;2023-03-31T03:31:55;6.10;;;4.70;;
67372;SDS011;54257;54.496;18.412;2023-03-31T03:34:32;6.20;;;3.70;;
67372;SDS011;54257;54.496;18.412;2023-03-31T03:37:08;5.70;;;3.60;;
67372;SDS011;54257;54.496;18.412;2023-03-31T03:39:37;6.80;;;4.10;;
67372;SDS011;54257;54.496;18.412;2023-03-31T03:42:13;6.20;;;3.90;;
67372;SDS011;54257;54.496;18.412;2023-03-31T03:44:44;7.50;;;4.10;;
67372;SDS011;54257;54.496;18.412;2023-03-31T03:47:15;7.60;;;4.50;;
67372;SDS011;54257;54.496;18.412;2023-03-31T03:49:53;8.40;;;4.70;;
67372;SDS011;54257;54.496;18.412;2023-03-31T03:52:27;8.20;;;5.10;;
67372;SDS011;54257;54.496;18.412;2023-03-31T03:55:04;9.90;;;6.00;;
67372;SDS011;54257;54.496;18.412;2023-03-31T03:57:39;9.30;;;5.60;;
67372;SDS011;54257;54.496;18.412;2023-03-31T04:00:18;7.90;;;4.80;;
67372;SDS011;54257;54.496;18.412;2023-03-31T04:02:50;9.30;;;5.30;;
67372;SDS011;54257;54.496;18.412;2023-03-31T04:05:25;7.50;;;5.10;;
67372;SDS011;54257;54.496;18.412;2023-03-31T04:07:58;8.80;;;4.60;;
67372;SDS011;54257;54.496;18.412;2023-03-31T04:10:29;9.40;;;4.90;;
67372;SDS011;54257;54.496;18.412;2023-03-31T04:13:05;6.90;;;4.30;;
67372;SDS011;54257;54.496;18.412;2023-03-31T04:15:37;7.60;;;4.80;;
67372;SDS011;54257;54.496;18.412;2023-03-31T04:18:11;9.40;;;5.60;;
67372;SDS011;54257;54.496;18.412;2023-03-31T04:21:06;7.00;;;4.40;;
67372;SDS011;54257;54.496;18.412;2023-03-31T04:24:02;8.10;;;4.30;;
67372;SDS011;54257;54.496;18.412;2023-03-31T04:26:33;6.90;;;4.00;;
67372;SDS011;54257;54.496;18.412;2023-03-31T04:29:14;5.90;;;4.50;;
67372;SDS011;54257;54.496;18.412;2023-03-31T04:31:45;6.70;;;4.50;;
67372;SDS011;54257;54.496;18.412;2023-03-31T04:34:19;7.70;;;4.60;;
67372;SDS011;54257;54.496;18.412;2023-03-31T04:36:52;11.00;;;5.70;;
67372;SDS011;54257;54.496;18.412;2023-03-31T04:39:24;12.00;;;7.00;;
67372;SDS011;54257;54.496;18.412;2023-03-31T04:42:08;6.10;;;4.40;;
67372;SDS011;54257;54.496;18.412;2023-03-31T04:44:40;8.60;;;4.90;;
67372;SDS011;54257;54.496;18.412;2023-03-31T04:47:13;6.80;;;4.20;;
67372;SDS011;54257;54.496;18.412;2023-03-31T04:49:45;9.80;;;4.80;;
67372;SDS011;54257;54.496;18.412;2023-03-31T04:52:19;5.40;;;4.20;;
67372;SDS011;54257;54.496;18.412;2023-03-31T04:54:47;8.60;;;4.10;;
67372;SDS011;54257;54.496;18.412;2023-03-31T04:57:18;7.60;;;4.20;;
67372;SDS011;54257;54.496;18.412;2023-03-31T04:59:53;8.20;;;4.30;;
67372;SDS011;54257;54.496;18.412;2023-03-31T05:02:22;9.90;;;5.40;;
67372;SDS011;54257;54.496;18.412;2023-03-31T05:04:50;9.20;;;5.60;;
67372;SDS011;54257;54.496;18.412;2023-03-31T05:07:19;9.70;;;4.20;;
67372;SDS011;54257;54.496;18.412;2023-03-31T05:09:58;5.90;;;3.80;;
67372;SDS011;54257;54.496;18.412;2023-03-31T05:12:28;8.00;;;4.40;;
67372;SDS011;54257;54.496;18.412;2023-03-31T05:15:17;8.10;;;4.60;;
67372;SDS011;54257;54.496;18.412;2023-03-31T05:17:57;6.30;;;4.60;;
67372;SDS011;54257;54.496;18.412;2023-03-31T05:20:30;8.90;;;4.80;;
67372;SDS011;54257;54.496;18.412;2023-03-31T05:22:58;12.70;;;5.40;;
67372;SDS011;54257;54.496;18.412;2023-03-31T05:25:39;12.10;;;5.50;;
67372;SDS011;54257;54.496;18.412;2023-03-31T05:28:22;8.90;;;5.30;;
67372;SDS011;54257;54.496;18.412;2023-03-31T05:30:59;9.50;;;5.00;;
67372;SDS011;54257;54.496;18.412;2023-03-31T05:33:41;8.40;;;5.70;;
67372;SDS011;54257;54.496;18.412;2023-03-31T05:36:13;7.70;;;4.70;;
67372;SDS011;54257;54.496;18.412;2023-03-31T05:38:48;8.80;;;4.80;;
67372;SDS011;54257;54.496;18.412;2023-03-31T05:41:21;9.20;;;4.90;;
67372;SDS011;54257;54.496;18.412;2023-03-31T05:43:49;7.50;;;5.70;;
67372;SDS011;54257;54.496;18.412;2023-03-31T05:46:37;11.00;;;5.60;;
67372;SDS011;54257;54.496;18.412;2023-03-31T05:49:27;8.60;;;5.20;;
67372;SDS011;54257;54.496;18.412;2023-03-31T05:52:05;9.00;;;5.50;;
67372;SDS011;54257;54.496;18.412;2023-03-31T05:54:43;8.10;;;5.10;;
67372;SDS011;54257;54.496;18.412;2023-03-31T05:57:14;8.70;;;5.80;;
67372;SDS011;54257;54.496;18.412;2023-03-31T05:59:49;8.10;;;6.40;;
67372;SDS011;54257;54.496;18.412;2023-03-31T06:02:20;8.80;;;6.30;;
67372;SDS011;54257;54.496;18.412;2023-03-31T06:04:53;9.20;;;6.10;;
67372;SDS011;54257;54.496;18.412;2023-03-31T06:07:22;8.40;;;6.30;;
67372;SDS011;54257;54.496;18.412;2023-03-31T06:09:54;7.10;;;5.60;;
67372;SDS011;54257;54.496;18.412;2023-03-31T06:14:55;8.40;;;5.90;;
67372;SDS011;54257;54.496;18.412;2023-03-31T06:17:23;10.80;;;6.40;;
67372;SDS011;54257;54.496;18.412;2023-03-31T06:20:00;11.00;;;6.60;;
67372;SDS011;54257;54.496;18.412;2023-03-31T06:22:32;12.80;;;7.10;;
67372;SDS011;54257;54.496;18.412;2023-03-31T06:25:01;12.50;;;7.10;;
67372;SDS011;54257;54.496;18.412;2023-03-31T06:27:34;9.40;;;7.80;;
67372;SDS011;54257;54.496;18.412;2023-03-31T06:30:03;13.50;;;7.70;;
67372;SDS011;54257;54.496;18.412;2023-03-31T06:32:32;11.40;;;7.90;;
67372;SDS011;54257;54.496;18.412;2023-03-31T06:35:08;11.40;;;7.80;;
67372;SDS011;54257;54.496;18.412;2023-03-31T06:37:55;9.40;;;7.30;;
67372;SDS011;54257;54.496;18.412;2023-03-31T06:40:27;12.90;;;7.50;;
67372;SDS011;54257;54.496;18.412;2023-03-31T06:42:58;9.60;;;7.50;;
67372;SDS011;54257;54.496;18.412;2023-03-31T06:45:31;14.50;;;8.20;;
67372;SDS011;54257;54.496;18.412;2023-03-31T06:48:03;11.00;;;6.60;;
67372;SDS011;54257;54.496;18.412;2023-03-31T06:50:32;9.60;;;7.00;;
67372;SDS011;54257;54.496;18.412;2023-03-31T06:53:04;10.80;;;7.50;;
67372;SDS011;54257;54.496;18.412;2023-03-31T06:55:38;11.50;;;7.60;;
67372;SDS011;54257;54.496;18.412;2023-03-31T06:58:09;9.60;;;7.30;;
67372;SDS011;54257;54.496;18.412;2023-03-31T07:00:53;10.00;;;7.70;;
67372;SDS011;54257;54.496;18.412;2023-03-31T07:03:27;10.50;;;6.30;;
67372;SDS011;54257;54.496;18.412;2023-03-31T07:06:00;11.30;;;7.00;;
67372;SDS011;54257;54.496;18.412;2023-03-31T07:08:31;12.70;;;6.60;;
67372;SDS011;54257;54.496;18.412;2023-03-31T07:11:04;11.00;;;7.60;;
67372;SDS011;54257;54.496;18.412;2023-03-31T07:13:34;7.70;;;6.30;;
67372;SDS011;54257;54.496;18.412;2023-03-31T07:16:03;9.50;;;6.20;;
67372;SDS011;54257;54.496;18.412;2023-03-31T07:18:35;10.60;;;7.00;;
67372;SDS011;54257;54.496;18.412;2023-03-31T07:21:08;8.90;;;6.40;;
67372;SDS011;54257;54.496;18.412;2023-03-31T07:23:39;8.30;;;6.80;;
67372;SDS011;54257;54.496;18.412;2023-03-31T07:26:17;11.10;;;7.30;;
67372;SDS011;54257;54.496;18.412;2023-03-31T07:28:50;12.30;;;7.50;;
67372;SDS011;54257;54.496;18.412;2023-03-31T07:31:29;9.90;;;7.00;;
67372;SDS011;54257;54.496;18.412;2023-03-31T07:34:27;10.90;;;7.80;;
67372;SDS011;54257;54.496;18.412;2023-03-31T07:37:06;12.30;;;7.60;;
67372;SDS011;54257;54.496;18.412;2023-03-31T07:39:36;11.10;;;8.70;;
67372;SDS011;54257;54.496;18.412;2023-03-31T07:42:09;10.70;;;7.90;;
67372;SDS011;54257;54.496;18.412;2023-03-31T07:44:42;11.80;;;8.30;;
67372;SDS011;54257;54.496;18.412;2023-03-31T07:47:17;12.70;;;8.20;;
67372;SDS011;54257;54.496;18.412;2023-03-31T07:49:48;12.80;;;8.30;;
67372;SDS011;54257;54.496;18.412;2023-03-31T07:52:33;11.60;;;7.60;;
67372;SDS011;54257;54.496;18.412;2023-03-31T07:55:04;10.90;;;7.70;;
67372;SDS011;54257;54.496;18.412;2023-03-31T07:57:37;8.60;;;6.40;;
67372;SDS011;54257;54.496;18.412;2023-03-31T08:00:10;11.10;;;6.60;;
67372;SDS011;54257;54.496;18.412;2023-03-31T08:02:43;7.10;;;5.60;;
67372;SDS011;54257;54.496;18.412;2023-03-31T08:05:16;10.20;;;6.40;;
67372;SDS011;54257;54.496;18.412;2023-03-31T08:07:47;10.50;;;5.60;;
67372;SDS011;54257;54.496;18.412;2023-03-31T08:10:40;7.80;;;5.40;;
67372;SDS011;54257;54.496;18.412;2023-03-31T08:13:17;7.70;;;4.50;;
67372;SDS011;54257;54.496;18.412;2023-03-31T08:15:50;6.60;;;4.50;;
67372;SDS011;54257;54.496;18.412;2023-03-31T08:18:24;7.10;;;5.10;;
67372;SDS011;54257;54.496;18.412;2023-03-31T08:20:54;7.50;;;4.40;;
67372;SDS011;54257;54.496;18.412;2023-03-31T08:23:29;6.10;;;4.60;;
67372;SDS011;54257;54.496;18.412;2023-03-31T08:26:23;9.10;;;5.70;;
67372;SDS011;54257;54.496;18.412;2023-03-31T08:28:56;10.00;;;6.00;;
67372;SDS011;54257;54.496;18.412;2023-03-31T08:31:42;9.90;;;6.20;;
67372;SDS011;54257;54.496;18.412;2023-03-31T08:34:28;9.40;;;6.30;;
67372;SDS011;54257;54.496;18.412;2023-03-31T08:36:57;8.10;;;5.80;;
67372;SDS011;54257;54.496;18.412;2023-03-31T08:39:29;6.40;;;5.30;;
67372;SDS011;54257;54.496;18.412;2023-03-31T08:42:06;6.60;;;4.80;;
67372;SDS011;54257;54.496;18.412;2023-03-31T08:47:40;8.20;;;5.90;;
67372;SDS011;54257;54.496;18.412;2023-03-31T08:50:24;7.80;;;4.60;;
67372;SDS011;54257;54.496;18.412;2023-03-31T08:53:01;6.40;;;4.20;;
67372;SDS011;54257;54.496;18.412;2023-03-31T08:55:54;6.20;;;4.60;;
67372;SDS011;54257;54.496;18.412;2023-03-31T09:16:23;6.20;;;4.40;;
67372;SDS011;54257;54.496;18.412;2023-03-31T09:19:02;7.70;;;4.10;;
67372;SDS011;54257;54.496;18.412;2023-03-31T09:21:39;7.70;;;4.40;;
67372;SDS011;54257;54.496;18.412;2023-03-31T09:24:17;8.00;;;5.00;;
67372;SDS011;54257;54.496;18.412;2023-03-31T09:26:54;5.60;;;4.10;;
67372;SDS011;54257;54.496;18.412;2023-03-31T09:32:19;6.20;;;4.40;;
67372;SDS011;54257;54.496;18.412;2023-03-31T09:34:59;6.10;;;3.90;;
67372;SDS011;54257;54.496;18.412;2023-03-31T09:37:41;5.70;;;4.20;;
67372;SDS011;54257;54.496;18.412;2023-03-31T09:40:16;6.30;;;4.10;;
67372;SDS011;54257;54.496;18.412;2023-03-31T09:42:59;6.30;;;3.80;;
67372;SDS011;54257;54.496;18.412;2023-03-31T09:45:36;7.50;;;4.50;;
67372;SDS011;54257;54.496;18.412;2023-03-31T09:48:15;7.20;;;4.80;;
67372;SDS011;54257;54.496;18.412;2023-03-31T09:50:50;46.40;;;11.60;;
67372;SDS011;54257;54.496;18.412;2023-03-31T10:02:05;4.60;;;3.90;;
67372;SDS011;54257;54.496;18.412;2023-03-31T10:04:50;6.90;;;3.90;;
67372;SDS011;54257;54.496;18.412;2023-03-31T10:07:23;7.60;;;4.50;;
67372;SDS011;54257;54.496;18.412;2023-03-31T10:09:53;5.60;;;4.00;;
67372;SDS011;54257;54.496;18.412;2023-03-31T10:12:32;5.30;;;3.80;;
67372;SDS011;54257;54.496;18.412;2023-03-31T10:18:18;5.90;;;3.30;;
67372;SDS011;54257;54.496;18.412;2023-03-31T10:20:50;4.20;;;3.30;;
67372;SDS011;54257;54.496;18.412;2023-03-31T10:23:27;5.70;;;3.20;;
67372;SDS011;54257;54.496;18.412;2023-03-31T10:26:01;5.80;;;3.30;;
67372;SDS011;54257;54.496;18.412;2023-03-31T10:28:34;6.90;;;3.80;;
67372;SDS011;54257;54.496;18.412;2023-03-31T10:31:14;6.20;;;3.90;;
67372;SDS011;54257;54.496;18.412;2023-03-31T10:33:48;5.30;;;2.80;;
67372;SDS011;54257;54.496;18.412;2023-03-31T10:36:26;8.10;;;3.30;;
67372;SDS011;54257;54.496;18.412;2023-03-31T10:39:11;4.60;;;2.40;;
67372;SDS011;54257;54.496;18.412;2023-03-31T10:41:48;3.10;;;2.20;;
67372;SDS011;54257;54.496;18.412;2023-03-31T10:47:08;4.20;;;2.10;;
67372;SDS011;54257;54.496;18.412;2023-03-31T10:49:55;3.40;;;1.90;;
67372;SDS011;54257;54.496;18.412;2023-03-31T10:52:27;3.10;;;1.80;;
67372;SDS011;54257;54.496;18.412;2023-03-31T10:54:59;3.00;;;1.90;;
67372;SDS011;54257;54.496;18.412;2023-03-31T10:57:33;4.40;;;2.20;;
67372;SDS011;54257;54.496;18.412;2023-03-31T11:00:07;7.00;;;2.40;;
67372;SDS011;54257;54.496;18.412;2023-03-31T11:05:37;7.60;;;2.10;;
67372;SDS011;54257;54.496;18.412;2023-03-31T11:11:52;4.60;;;2.50;;
67372;SDS011;54257;54.496;18.412;2023-03-31T11:14:58;6.80;;;2.90;;
67372;SDS011;54257;54.496;18.412;2023-03-31T11:17:46;6.00;;;3.00;;
67372;SDS011;54257;54.496;18.412;2023-03-31T11:20:50;7.20;;;2.80;;
67372;SDS011;54257;54.496;18.412;2023-03-31T11:23:56;7.50;;;3.70;;
67372;SDS011;54257;54.496;18.412;2023-03-31T11:32:29;8.20;;;3.20;;
67372;SDS011;54257;54.496;18.412;2023-03-31T11:35:33;7.20;;;3.10;;
67372;SDS011;54257;54.496;18.412;2023-03-31T11:38:39;7.10;;;3.20;;
67372;SDS011;54257;54.496;18.412;2023-03-31T11:41:32;5.60;;;2.90;;
67372;SDS011;54257;54.496;18.412;2023-03-31T11:44:29;7.10;;;3.30;;
67372;SDS011;54257;54.496;18.412;2023-03-31T11:47:33;9.50;;;3.40;;
67372;SDS011;54257;54.496;18.412;2023-03-31T11:50:11;4.50;;;3.10;;
67372;SDS011;54257;54.496;18.412;2023-03-31T11:52:52;5.60;;;3.50;;
67372;SDS011;54257;54.496;18.412;2023-03-31T11:55:29;5.10;;;3.10;;
67372;SDS011;54257;54.496;18.412;2023-03-31T11:58:04;5.10;;;3.00;;
67372;SDS011;54257;54.496;18.412;2023-03-31T12:00:47;4.50;;;2.50;;
67372;SDS011;54257;54.496;18.412;2023-03-31T12:06:37;36.20;;;18.20;;
67372;SDS011;54257;54.496;18.412;2023-03-31T12:09:16;105.80;;;39.20;;
67372;SDS011;54257;54.496;18.412;2023-03-31T12:14:47;9.40;;;4.80;;
67372;SDS011;54257;54.496;18.412;2023-03-31T12:17:58;56.80;;;23.70;;
67372;SDS011;54257;54.496;18.412;2023-03-31T12:20:41;22.80;;;9.90;;
67372;SDS011;54257;54.496;18.412;2023-03-31T12:23:33;41.50;;;19.50;;
67372;SDS011;54257;54.496;18.412;2023-03-31T12:26:32;3.80;;;2.70;;
67372;SDS011;54257;54.496;18.412;2023-03-31T12:29:23;4.90;;;2.90;;
67372;SDS011;54257;54.496;18.412;2023-03-31T12:32:18;4.70;;;2.70;;
67372;SDS011;54257;54.496;18.412;2023-03-31T12:54:03;5.80;;;3.30;;
67372;SDS011;54257;54.496;18.412;2023-03-31T12:59:41;7.10;;;3.00;;
67372;SDS011;54257;54.496;18.412;2023-03-31T13:02:22;7.70;;;2.50;;
67372;SDS011;54257;54.496;18.412;2023-03-31T13:04:54;6.10;;;2.90;;
67372;SDS011;54257;54.496;18.412;2023-03-31T13:13:15;4.00;;;2.30;;
67372;SDS011;54257;54.496;18.412;2023-03-31T13:16:00;4.60;;;2.50;;
67372;SDS011;54257;54.496;18.412;2023-03-31T13:18:36;6.20;;;2.60;;
67372;SDS011;54257;54.496;18.412;2023-03-31T13:32:27;7.00;;;2.00;;
67372;SDS011;54257;54.496;18.412;2023-03-31T13:53:59;2.50;;;1.80;;
67372;SDS011;54257;54.496;18.412;2023-03-31T13:57:11;3.30;;;2.20;;
67372;SDS011;54257;54.496;18.412;2023-03-31T14:08:40;5.10;;;3.20;;
67372;SDS011;54257;54.496;18.412;2023-03-31T14:11:23;3.50;;;2.70;;
67372;SDS011;54257;54.496;18.412;2023-03-31T14:14:06;4.80;;;2.80;;
67372;SDS011;54257;54.496;18.412;2023-03-31T14:17:23;6.00;;;2.70;;
67372;SDS011;54257;54.496;18.412;2023-03-31T14:39:39;2.60;;;1.70;;
67372;SDS011;54257;54.496;18.412;2023-03-31T14:44:19;2.20;;;1.60;;
67372;SDS011;54257;54.496;18.412;2023-03-31T14:55:00;2.30;;;1.80;;
67372;SDS011;54257;54.496;18.412;2023-03-31T14:57:45;3.00;;;2.20;;
67372;SDS011;54257;54.496;18.412;2023-03-31T15:01:10;4.50;;;2.90;;
67372;SDS011;54257;54.496;18.412;2023-03-31T15:07:41;2.90;;;1.90;;
67372;SDS011;54257;54.496;18.412;2023-03-31T15:21:27;3.00;;;2.50;;
67372;SDS011;54257;54.496;18.412;2023-03-31T15:32:49;4.80;;;2.60;;
67372;SDS011;54257;54.496;18.412;2023-03-31T15:35:55;12.20;;;9.20;;
67372;SDS011;54257;54.496;18.412;2023-03-31T15:39:45;10.80;;;8.90;;
67372;SDS011;54257;54.496;18.412;2023-03-31T15:49:56;12.50;;;10.50;;
67372;SDS011;54257;54.496;18.412;2023-03-31T16:10:42;18.10;;;12.40;;
67372;SDS011;54257;54.496;18.412;2023-03-31T16:13:33;15.30;;;10.00;;
67372;SDS011;54257;54.496;18.412;2023-03-31T16:16:58;15.30;;;10.30;;
67372;SDS011;54257;54.496;18.412;2023-03-31T16:23:22;20.60;;;11.30;;
67372;SDS011;54257;54.496;18.412;2023-03-31T16:26:34;15.70;;;12.80;;
67372;SDS011;54257;54.496;18.412;2023-03-31T16:29:25;25.40;;;18.40;;
67372;SDS011;54257;54.496;18.412;2023-03-31T16:32:09;28.50;;;18.30;;
67372;SDS011;54257;54.496;18.412;2023-03-31T16:34:52;25.90;;;13.70;;
67372;SDS011;54257;54.496;18.412;2023-03-31T16:37:34;31.60;;;19.40;;
67372;SDS011;54257;54.496;18.412;2023-03-31T16:40:24;22.50;;;14.10;;
67372;SDS011;54257;54.496;18.412;2023-03-31T16:46:07;18.80;;;11.40;;
67372;SDS011;54257;54.496;18.412;2023-03-31T16:48:44;19.80;;;13.70;;
67372;SDS011;54257;54.496;18.412;2023-03-31T16:51:14;17.90;;;12.70;;
67372;SDS011;54257;54.496;18.412;2023-03-31T16:54:16;34.90;;;8.50;;
67372;SDS011;54257;54.496;18.412;2023-03-31T16:57:31;20.70;;;10.60;;
67372;SDS011;54257;54.496;18.412;2023-03-31T17:00:05;27.60;;;9.10;;
67372;SDS011;54257;54.496;18.412;2023-03-31T17:02:40;20.80;;;9.70;;
67372;SDS011;54257;54.496;18.412;2023-03-31T17:05:13;24.90;;;9.70;;
67372;SDS011;54257;54.496;18.412;2023-03-31T17:07:54;33.20;;;11.00;;
67372;SDS011;54257;54.496;18.412;2023-03-31T17:10:34;45.30;;;12.80;;
67372;SDS011;54257;54.496;18.412;2023-03-31T17:13:08;31.30;;;13.40;;
67372;SDS011;54257;54.496;18.412;2023-03-31T17:15:40;27.40;;;13.50;;
67372;SDS011;54257;54.496;18.412;2023-03-31T17:18:16;69.40;;;15.90;;
67372;SDS011;54257;54.496;18.412;2023-03-31T17:20:45;71.50;;;17.60;;
67372;SDS011;54257;54.496;18.412;2023-03-31T17:23:24;115.40;;;19.00;;
67372;SDS011;54257;54.496;18.412;2023-03-31T17:26:01;66.70;;;15.50;;
67372;SDS011;54257;54.496;18.412;2023-03-31T17:28:45;63.00;;;17.80;;
67372;SDS011;54257;54.496;18.412;2023-03-31T17:34:02;27.00;;;13.60;;
67372;SDS011;54257;54.496;18.412;2023-03-31T17:36:34;56.40;;;15.90;;
67372;SDS011;54257;54.496;18.412;2023-03-31T17:39:03;78.50;;;17.80;;
67372;SDS011;54257;54.496;18.412;2023-03-31T17:41:40;25.00;;;13.70;;
67372;SDS011;54257;54.496;18.412;2023-03-31T17:44:14;33.70;;;14.00;;
67372;SDS011;54257;54.496;18.412;2023-03-31T17:46:50;35.10;;;15.40;;
67372;SDS011;54257;54.496;18.412;2023-03-31T17:49:38;38.60;;;16.70;;
67372;SDS011;54257;54.496;18.412;2023-03-31T17:52:09;30.20;;;14.30;;
67372;SDS011;54257;54.496;18.412;2023-03-31T17:54:48;43.00;;;16.10;;
67372;SDS011;54257;54.496;18.412;2023-03-31T17:57:39;48.90;;;19.00;;
67372;SDS011;54257;54.496;18.412;2023-03-31T18:00:13;105.80;;;21.30;;
67372;SDS011;54257;54.496;18.412;2023-03-31T18:02:47;67.90;;;20.20;;
67372;SDS011;54257;54.496;18.412;2023-03-31T18:05:18;150.00;;;29.60;;
67372;SDS011;54257;54.496;18.412;2023-03-31T18:07:46;87.10;;;28.50;;
67372;SDS011;54257;54.496;18.412;2023-03-31T18:10:39;66.60;;;22.30;;
67372;SDS011;54257;54.496;18.412;2023-03-31T18:13:10;51.30;;;19.40;;
67372;SDS011;54257;54.496;18.412;2023-03-31T18:15:49;50.40;;;20.60;;
67372;SDS011;54257;54.496;18.412;2023-03-31T18:18:37;28.60;;;17.40;;
67372;SDS011;54257;54.496;18.412;2023-03-31T18:21:20;38.60;;;21.20;;
67372;SDS011;54257;54.496;18.412;2023-03-31T18:23:56;36.40;;;18.50;;
67372;SDS011;54257;54.496;18.412;2023-03-31T18:26:26;39.30;;;18.50;;
67372;SDS011;54257;54.496;18.412;2023-03-31T18:29:09;37.60;;;19.20;;
67372;SDS011;54257;54.496;18.412;2023-03-31T18:31:48;32.70;;;18.80;;
67372;SDS011;54257;54.496;18.412;2023-03-31T18:34:29;75.50;;;20.40;;
67372;SDS011;54257;54.496;18.412;2023-03-31T18:37:03;34.10;;;18.00;;
67372;SDS011;54257;54.496;18.412;2023-03-31T18:39:40;38.70;;;20.20;;
67372;SDS011;54257;54.496;18.412;2023-03-31T18:42:16;35.00;;;17.20;;
67372;SDS011;54257;54.496;18.412;2023-03-31T18:45:07;28.10;;;17.20;;
67372;SDS011;54257;54.496;18.412;2023-03-31T18:48:05;38.80;;;20.00;;
67372;SDS011;54257;54.496;18.412;2023-03-31T18:50:41;50.20;;;18.50;;
67372;SDS011;54257;54.496;18.412;2023-03-31T18:53:26;61.40;;;26.10;;
67372;SDS011;54257;54.496;18.412;2023-03-31T18:56:19;39.80;;;20.50;;
67372;SDS011;54257;54.496;18.412;2023-03-31T18:59:23;57.10;;;20.80;;
67372;SDS011;54257;54.496;18.412;2023-03-31T19:02:22;35.30;;;17.10;;
67372;SDS011;54257;54.496;18.412;2023-03-31T19:05:11;53.10;;;17.40;;
67372;SDS011;54257;54.496;18.412;2023-03-31T19:07:48;47.90;;;18.10;;
67372;SDS011;54257;54.496;18.412;2023-03-31T19:10:33;58.20;;;17.90;;
67372;SDS011;54257;54.496;18.412;2023-03-31T19:13:21;93.50;;;22.10;;
67372;SDS011;54257;54.496;18.412;2023-03-31T19:15:59;41.20;;;18.00;;
67372;SDS011;54257;54.496;18.412;2023-03-31T19:18:36;101.70;;;20.50;;
67372;SDS011;54257;54.496;18.412;2023-03-31T19:21:33;26.80;;;15.50;;
67372;SDS011;54257;54.496;18.412;2023-03-31T19:24:30;53.50;;;16.00;;
67372;SDS011;54257;54.496;18.412;2023-03-31T19:27:21;71.10;;;17.10;;
67372;SDS011;54257;54.496;18.412;2023-03-31T19:30:00;53.70;;;17.00;;
67372;SDS011;54257;54.496;18.412;2023-03-31T19:32:40;48.70;;;15.30;;
67372;SDS011;54257;54.496;18.412;2023-03-31T19:35:11;48.40;;;15.30;;
67372;SDS011;54257;54.496;18.412;2023-03-31T19:37:50;44.00;;;14.70;;
67372;SDS011;54257;54.496;18.412;2023-03-31T19:40:27;36.00;;;13.60;;
67372;SDS011;54257;54.496;18.412;2023-03-31T19:43:02;69.10;;;14.50;;
67372;SDS011;54257;54.496;18.412;2023-03-31T19:46:02;39.10;;;11.90;;
67372;SDS011;54257;54.496;18.412;2023-03-31T19:48:45;71.70;;;13.60;;
67372;SDS011;54257;54.496;18.412;2023-03-31T19:51:31;40.40;;;13.80;;
67372;SDS011;54257;54.496;18.412;2023-03-31T19:54:34;48.50;;;14.20;;
67372;SDS011;54257;54.496;18.412;2023-03-31T19:57:20;60.10;;;14.40;;
67372;SDS011;54257;54.496;18.412;2023-03-31T20:00:11;38.40;;;11.80;;
67372;SDS011;54257;54.496;18.412;2023-03-31T20:03:00;36.40;;;10.80;;
67372;SDS011;54257;54.496;18.412;2023-03-31T20:05:46;92.30;;;15.50;;
67372;SDS011;54257;54.496;18.412;2023-03-31T20:08:30;35.70;;;11.40;;